createdAt,value
2023-10-27T00:00:59.127Z,95506.00
2023-10-27T00:03:25.987Z,95507.00
2023-10-27T00:05:52.688Z,95501.16
2023-10-27T00:08:19.379Z,95508.16
2023-10-27T00:10:46.259Z,95504.13
2023-10-27T00:13:13.044Z,95503.31
2023-10-27T00:15:39.846Z,95492.91
2023-10-27T00:18:06.725Z,95493.28
2023-10-27T00:20:33.638Z,95493.28
2023-10-27T00:23:00.493Z,95493.28
2023-10-27T00:25:27.304Z,95498.47
2023-10-27T00:27:54.132Z,95502.06
2023-10-27T00:30:21.341Z,95501.28
2023-10-27T00:32:48.294Z,95500.63
2023-10-27T00:35:15.725Z,95504.38
2023-10-27T00:37:42.612Z,95503.50
2023-10-27T00:40:09.867Z,95501.88
2023-10-27T00:42:36.697Z,95504.81
2023-10-27T00:45:04.532Z,95506.41
2023-10-27T00:47:31.970Z,95503.63
2023-10-27T00:49:59.972Z,95513.09
2023-10-27T00:52:28.055Z,95510.63
2023-10-27T00:54:55.982Z,95514.22
2023-10-27T00:57:24.151Z,95514.22
2023-10-27T00:59:53.742Z,95516.84
2023-10-27T01:02:22.254Z,95513.41
2023-10-27T01:04:49.739Z,95511.81
2023-10-27T01:07:17.462Z,95510.00
2023-10-27T01:09:44.910Z,95516.19
2023-10-27T01:12:12.027Z,95507.41
2023-10-27T01:14:39.006Z,95510.00
2023-10-27T01:17:05.934Z,95508.41
2023-10-27T01:19:32.828Z,95511.81
2023-10-27T01:21:59.724Z,95508.41
2023-10-27T01:24:26.775Z,95505.78
2023-10-27T01:26:53.437Z,95507.59
2023-10-27T01:29:21.591Z,95506.97
2023-10-27T01:31:48.348Z,95507.31
2023-10-27T01:34:15.890Z,95504.53
2023-10-27T01:36:42.612Z,95499.16
2023-10-27T01:39:09.439Z,95504.53
2023-10-27T01:41:36.165Z,95502.13
2023-10-27T01:44:02.911Z,95498.53
2023-10-27T01:46:29.661Z,95511.72
2023-10-27T01:48:56.457Z,95498.72
2023-10-27T01:51:23.200Z,95504.91
2023-10-27T01:53:49.884Z,95503.28
2023-10-27T01:56:16.610Z,95504.28
2023-10-27T01:58:45.312Z,95492.56
2023-10-27T02:01:15.505Z,95500.69
2023-10-27T02:03:42.726Z,95499.09
2023-10-27T02:06:09.488Z,95494.06
2023-10-27T02:08:36.431Z,95494.56
2023-10-27T02:11:04.212Z,95494.13
2023-10-27T02:13:31.207Z,95488.75
2023-10-27T02:15:58.646Z,95484.53
2023-10-27T02:18:25.370Z,95488.91
2023-10-27T02:20:52.037Z,95492.31
2023-10-27T02:23:19.419Z,95489.56
2023-10-27T02:25:46.897Z,95490.53
2023-10-27T02:28:13.646Z,95486.94
2023-10-27T02:30:40.452Z,95488.91
2023-10-27T02:33:07.240Z,95488.47
2023-10-27T02:35:33.975Z,95490.44
2023-10-27T02:38:00.707Z,95478.25
2023-10-27T02:40:27.406Z,95488.66
2023-10-27T02:42:54.208Z,95486.84
2023-10-27T02:45:22.313Z,95482.97
2023-10-27T02:47:49.111Z,95484.47
2023-10-27T02:50:15.924Z,95482.06
2023-10-27T02:52:42.665Z,95476.06
2023-10-27T02:55:09.812Z,95476.69
2023-10-27T02:57:36.629Z,95481.69
2023-10-27T03:00:05.218Z,95481.53
2023-10-27T03:02:31.993Z,95476.31
2023-10-27T03:04:58.835Z,95481.69
2023-10-27T03:07:25.872Z,95484.13
2023-10-27T03:09:52.651Z,95478.13
2023-10-27T03:12:20.438Z,95482.50
2023-10-27T03:14:47.224Z,95488.53
2023-10-27T03:17:13.962Z,95485.91
2023-10-27T03:19:40.781Z,95485.47
2023-10-27T03:22:07.843Z,95490.53
2023-10-27T03:24:34.649Z,95494.47
2023-10-27T03:27:01.428Z,95494.84
2023-10-27T03:29:28.339Z,95495.66
2023-10-27T03:31:55.350Z,95498.88
2023-10-27T03:34:22.174Z,95498.69
2023-10-27T03:36:48.950Z,95498.88
2023-10-27T03:39:15.710Z,95490.81
2023-10-27T03:41:42.523Z,95493.41
2023-10-27T03:44:10.297Z,95500.38
2023-10-27T03:46:36.986Z,95494.25
2023-10-27T03:49:03.769Z,61792.09
2023-10-27T03:51:30.490Z,61792.09
2023-10-27T03:53:57.195Z,61792.09
2023-10-27T03:56:23.900Z,61792.09
2023-10-27T03:58:50.633Z,61792.09
2023-10-27T04:01:17.801Z,61792.09
2023-10-27T04:03:44.527Z,61792.09
2023-10-27T04:06:12.701Z,61792.09
2023-10-27T04:08:39.571Z,61792.09
2023-10-27T04:11:06.301Z,61792.09
2023-10-27T04:13:33.195Z,61792.09
2023-10-27T04:16:00.257Z,61792.09
2023-10-27T04:18:27.005Z,61792.09
2023-10-27T04:20:53.709Z,61792.09
2023-10-27T04:23:20.379Z,61792.09
2023-10-27T04:25:48.478Z,61792.09
2023-10-27T04:28:15.851Z,61792.09
2023-10-27T04:30:42.587Z,61792.09
2023-10-27T04:33:11.106Z,61792.09
2023-10-27T04:35:38.225Z,61792.09
2023-10-27T04:38:12.415Z,61792.09
2023-10-27T04:40:39.217Z,61792.09
2023-10-27T04:43:06.071Z,61792.09
2023-10-27T04:45:32.901Z,61792.09
2023-10-27T04:47:59.739Z,61792.09
2023-10-27T04:50:26.826Z,61792.09
2023-10-27T04:52:53.601Z,61792.09
2023-10-27T04:55:20.423Z,61792.09
2023-10-27T04:57:47.249Z,61792.09
2023-10-27T05:00:14.299Z,61792.09
2023-10-27T05:02:42.056Z,61792.09
2023-10-27T05:05:09.885Z,61792.09
2023-10-27T05:07:37.580Z,61792.09
2023-10-27T05:10:08.720Z,61792.09
2023-10-27T05:12:37.343Z,61792.09
2023-10-27T05:15:04.512Z,61792.09
2023-10-27T05:17:34.908Z,61792.09
2023-10-27T05:20:03.912Z,61792.09
2023-10-27T05:22:31.350Z,61792.09
2023-10-27T05:25:04.712Z,61792.09
2023-10-27T05:27:31.982Z,61792.09
2023-10-27T05:29:58.701Z,61792.09
2023-10-27T05:32:25.449Z,61792.09
2023-10-27T05:34:52.778Z,61792.09
2023-10-27T05:37:21.812Z,61792.09
2023-10-27T05:39:49.208Z,61792.09
2023-10-27T05:42:16.101Z,61792.09
2023-10-27T05:44:43.299Z,61792.09
2023-10-27T05:47:10.424Z,61792.09
2023-10-27T05:49:37.445Z,61792.09
2023-10-27T05:52:05.032Z,61792.09
2023-10-27T05:54:31.961Z,61792.09
2023-10-27T05:56:58.928Z,61792.09
2023-10-27T05:59:25.709Z,61792.09
2023-10-27T06:02:06.177Z,61792.09
2023-10-27T06:04:41.101Z,61792.09
2023-10-27T06:07:07.899Z,61792.09
2023-10-27T06:09:36.069Z,61792.09
2023-10-27T06:12:02.963Z,61792.09
2023-10-27T06:14:29.721Z,61792.09
2023-10-27T06:16:56.405Z,61792.09
2023-10-27T06:19:23.168Z,61792.09
2023-10-27T06:21:49.954Z,61792.09
2023-10-27T06:24:16.748Z,61792.09
2023-10-27T06:26:43.579Z,61792.09
2023-10-27T06:29:10.283Z,61792.09
2023-10-27T06:31:37.068Z,61792.09
2023-10-27T06:34:03.802Z,61792.09
2023-10-27T06:36:31.635Z,61792.09
2023-10-27T06:38:58.500Z,61792.09
2023-10-27T06:41:25.253Z,61792.09
2023-10-27T06:43:51.970Z,61792.09
2023-10-27T06:46:19.527Z,61792.09
2023-10-27T06:48:47.165Z,61792.09
2023-10-27T06:51:13.942Z,61792.09
2023-10-27T06:53:41.955Z,61792.09
2023-10-27T06:56:08.642Z,61792.09
2023-10-27T06:58:35.408Z,61792.09
2023-10-27T07:01:06.972Z,61792.09
2023-10-27T07:03:35.569Z,61792.09
2023-10-27T07:06:04.440Z,61792.09
2023-10-27T07:08:31.915Z,61792.09
2023-10-27T07:10:59.942Z,61792.09
2023-10-27T07:13:27.592Z,61792.09
2023-10-27T07:15:54.400Z,61792.09
2023-10-27T07:18:21.586Z,61792.09
2023-10-27T07:20:48.943Z,61792.09
2023-10-27T07:23:17.205Z,61792.09
2023-10-27T07:25:44.096Z,61792.09
2023-10-27T07:28:11.004Z,61792.09
2023-10-27T07:30:37.899Z,61792.09
2023-10-27T07:33:05.429Z,61792.09
2023-10-27T07:35:32.583Z,61792.09
2023-10-27T07:37:59.846Z,61792.09
2023-10-27T07:40:27.077Z,61792.09
2023-10-27T07:42:58.164Z,61792.09
2023-10-27T07:45:26.340Z,61792.09
2023-10-27T07:47:55.641Z,61792.09
2023-10-27T07:50:22.324Z,61792.09
2023-10-27T07:52:49.094Z,61792.09
2023-10-27T07:55:16.106Z,61792.09
2023-10-27T07:57:42.827Z,61792.09
2023-10-27T08:00:11.115Z,61792.09
2023-10-27T08:02:39.287Z,61792.09
2023-10-27T08:05:07.834Z,61792.09
2023-10-27T08:07:37.713Z,61792.09
2023-10-27T08:10:08.278Z,61792.09
2023-10-27T08:12:35.677Z,61792.09
2023-10-27T08:15:06.267Z,61792.09
2023-10-27T08:17:37.500Z,61792.09
2023-10-27T08:20:05.305Z,61792.09
2023-10-27T08:22:34.093Z,61792.09
2023-10-27T08:25:01.057Z,61792.09
2023-10-27T08:27:27.878Z,61792.09
2023-10-27T08:29:55.722Z,61792.09
2023-10-27T08:32:22.949Z,61792.09
2023-10-27T08:34:50.135Z,61792.09
2023-10-27T08:37:17.926Z,61792.09
2023-10-27T08:39:45.096Z,61792.09
2023-10-27T08:42:11.953Z,61792.09
2023-10-27T08:44:41.400Z,61792.09
2023-10-27T08:47:08.173Z,61792.09
2023-10-27T08:49:34.962Z,61792.09
2023-10-27T08:52:03.569Z,61792.09
2023-10-27T08:54:33.464Z,61792.09
2023-10-27T08:57:00.191Z,61792.09
2023-10-27T08:59:26.924Z,61792.09
2023-10-27T09:01:56.462Z,61792.09
2023-10-27T09:04:25.743Z,61792.09
2023-10-27T09:06:52.610Z,61792.09
2023-10-27T09:09:21.051Z,61792.09
2023-10-27T09:11:49.942Z,61792.09
2023-10-27T09:14:25.126Z,61792.09
2023-10-27T09:16:52.331Z,61792.09
2023-10-27T09:19:22.901Z,61792.09
2023-10-27T09:21:49.647Z,61792.09
2023-10-27T09:24:26.268Z,61792.09
2023-10-27T09:26:53.919Z,61792.09
2023-10-27T09:29:21.351Z,61792.09
2023-10-27T09:31:48.476Z,61792.09
2023-10-27T09:34:24.551Z,61792.09
2023-10-27T09:36:59.987Z,61792.09
2023-10-27T09:39:27.203Z,61792.09
2023-10-27T09:42:04.540Z,61792.09
2023-10-27T09:44:54.322Z,61792.09
2023-10-27T09:47:34.180Z,61792.09
2023-10-27T09:50:07.365Z,61792.09
2023-10-27T09:52:35.175Z,61792.09
2023-10-27T09:55:15.303Z,61792.09
2023-10-27T09:57:45.664Z,61792.09
2023-10-27T10:00:16.985Z,61792.09
2023-10-27T10:02:44.632Z,61792.09
2023-10-27T10:05:13.039Z,61792.09
2023-10-27T10:08:07.107Z,61792.09
2023-10-27T10:10:34.345Z,61792.09
2023-10-27T10:13:04.747Z,61792.09
2023-10-27T10:15:43.014Z,61792.09
2023-10-27T10:18:21.927Z,61792.09
2023-10-27T10:20:48.835Z,61792.09
2023-10-27T10:23:15.951Z,61792.09
2023-10-27T10:25:55.064Z,61792.09
2023-10-27T10:28:26.252Z,61792.09
2023-10-27T10:31:08.515Z,61792.09
2023-10-27T10:33:36.451Z,61792.09
2023-10-27T10:36:13.041Z,61792.09
2023-10-27T10:38:42.301Z,61792.09
2023-10-27T10:41:09.111Z,61792.09
2023-10-27T10:43:39.373Z,61792.09
2023-10-27T10:46:08.456Z,61792.09
2023-10-27T10:48:37.229Z,61792.09
2023-10-27T10:51:40.889Z,61792.09
2023-10-27T10:54:13.170Z,61792.09
2023-10-27T10:56:39.894Z,61792.09
2023-10-27T10:59:06.620Z,61792.09
2023-10-27T11:01:34.392Z,61792.09
2023-10-27T11:04:01.289Z,61792.09
2023-10-27T11:06:29.677Z,61792.09
2023-10-27T11:08:56.543Z,61792.09
2023-10-27T11:11:29.371Z,61792.09
2023-10-27T11:14:05.258Z,61792.09
2023-10-27T11:16:33.058Z,61792.09
2023-10-27T11:19:03.416Z,61792.09
2023-10-27T11:21:33.502Z,61792.09
2023-10-27T11:24:07.413Z,61792.09
2023-10-27T11:26:41.534Z,61792.09
2023-10-27T11:29:09.035Z,61792.09
2023-10-27T11:31:43.341Z,61792.09
2023-10-27T11:34:23.042Z,61792.09
2023-10-27T11:37:02.451Z,61792.09
2023-10-27T11:39:29.732Z,61792.09
2023-10-27T11:42:01.673Z,61792.09
2023-10-27T11:44:29.526Z,61792.09
2023-10-27T11:46:58.887Z,61792.09
2023-10-27T11:49:27.329Z,61792.09
2023-10-27T11:51:58.037Z,61792.09
2023-10-27T11:54:26.588Z,61792.09
2023-10-27T11:56:53.394Z,61792.09
2023-10-27T11:59:26.001Z,61792.09
2023-10-27T12:01:53.669Z,61792.09
2023-10-27T12:04:20.476Z,61792.09
2023-10-27T12:06:47.309Z,61792.09
2023-10-27T12:09:14.121Z,61792.09
2023-10-27T12:11:44.021Z,61792.09
2023-10-27T12:14:11.833Z,61792.09
2023-10-27T12:16:39.298Z,61792.09
2023-10-27T12:19:06.029Z,61792.09
2023-10-27T12:21:34.394Z,61792.09
2023-10-27T12:24:01.279Z,61792.09
2023-10-27T12:26:28.795Z,61792.09
2023-10-27T12:28:55.571Z,61792.09
2023-10-27T12:31:22.253Z,61792.09
2023-10-27T12:33:50.295Z,61792.09
2023-10-27T12:36:17.114Z,61792.09
2023-10-27T12:38:43.793Z,61792.09
2023-10-27T12:41:10.800Z,61792.09
2023-10-27T12:43:37.771Z,61792.09
2023-10-27T12:46:05.682Z,61792.09
2023-10-27T12:48:34.063Z,61792.09
2023-10-27T12:51:02.160Z,61792.09
2023-10-27T12:53:28.947Z,61792.09
2023-10-27T12:55:57.361Z,61792.09
2023-10-27T12:58:24.835Z,61792.09
2023-10-27T13:00:52.235Z,61792.09
2023-10-27T13:03:19.690Z,61792.09
2023-10-27T13:05:46.591Z,61792.09
2023-10-27T13:08:13.832Z,61792.09
2023-10-27T13:10:40.992Z,61792.09
2023-10-27T13:13:07.926Z,61792.09
2023-10-27T13:15:35.511Z,61792.09
2023-10-27T13:18:07.001Z,61792.09
2023-10-27T13:20:34.724Z,61792.09
2023-10-27T13:23:03.225Z,61792.09
2023-10-27T13:25:30.871Z,61792.09
2023-10-27T13:27:57.738Z,61792.09
2023-10-27T13:30:24.575Z,61792.09
2023-10-27T13:32:51.709Z,61792.09
2023-10-27T13:35:21.887Z,61792.09
2023-10-27T13:37:49.490Z,61792.09
2023-10-27T13:40:19.551Z,61792.09
2023-10-27T13:42:50.156Z,61792.09
2023-10-27T13:45:17.492Z,61792.09
2023-10-27T13:47:46.059Z,61792.09
2023-10-27T13:50:13.393Z,61792.09
2023-10-27T13:52:40.197Z,61792.09
2023-10-27T13:55:09.814Z,61792.09
2023-10-27T13:57:36.982Z,61792.09
2023-10-27T14:00:04.530Z,61792.09
2023-10-27T14:02:31.722Z,61792.09
2023-10-27T14:04:58.650Z,61792.09
2023-10-27T14:07:26.364Z,61792.09
2023-10-27T14:09:53.134Z,61792.09
2023-10-27T14:12:19.854Z,61792.09
2023-10-27T14:14:46.730Z,61792.09
2023-10-27T14:17:13.631Z,61792.09
2023-10-27T14:19:40.684Z,61792.09
2023-10-27T14:22:07.524Z,61792.09
2023-10-27T14:24:34.258Z,61792.09
2023-10-27T14:27:01.160Z,61792.09
2023-10-27T14:29:28.014Z,61792.09
2023-10-27T14:31:55.509Z,61792.09
2023-10-27T14:34:22.441Z,61792.09
2023-10-27T14:36:50.545Z,61792.09
2023-10-27T14:39:17.718Z,61792.09
2023-10-27T14:41:44.408Z,61792.09
2023-10-27T14:44:12.439Z,61792.09
2023-10-27T14:46:39.552Z,61792.09
2023-10-27T14:49:07.494Z,61792.09
2023-10-27T14:51:35.951Z,61792.09
2023-10-27T14:54:03.313Z,61792.09
2023-10-27T14:56:30.139Z,61792.09
2023-10-27T14:58:58.614Z,61792.09
2023-10-27T15:01:28.555Z,61792.09
2023-10-27T15:03:55.365Z,61792.09
2023-10-27T15:06:22.513Z,61792.09
2023-10-27T15:08:49.219Z,61792.09
2023-10-27T15:11:16.072Z,61792.09
2023-10-27T15:13:42.959Z,61792.09
2023-10-27T15:16:14.200Z,61792.09
2023-10-27T15:18:43.900Z,61792.09
2023-10-27T15:21:12.559Z,61792.09
2023-10-27T15:23:39.756Z,61792.09
2023-10-27T15:26:09.274Z,61792.09
2023-10-27T15:28:36.438Z,61792.09
2023-10-27T15:31:08.311Z,61792.09
2023-10-27T15:33:36.341Z,61792.09
2023-10-27T15:36:08.482Z,61792.09
2023-10-27T15:38:36.333Z,61792.09
2023-10-27T15:41:04.625Z,61792.09
2023-10-27T15:43:32.507Z,61792.09
2023-10-27T15:46:01.617Z,61792.09
2023-10-27T15:48:34.776Z,61792.09
2023-10-27T15:51:03.345Z,61792.09
2023-10-27T15:53:31.969Z,61792.09
2023-10-27T15:55:59.351Z,61792.09
2023-10-27T15:58:27.504Z,61792.09
2023-10-27T16:00:56.664Z,61792.09
2023-10-27T16:03:25.262Z,61792.09
2023-10-27T16:05:53.412Z,61792.09
2023-10-27T16:08:20.212Z,61792.09
2023-10-27T16:10:46.990Z,61792.09
2023-10-27T16:13:13.750Z,61792.09
2023-10-27T16:15:40.634Z,61792.09
2023-10-27T16:18:10.471Z,61792.09
2023-10-27T16:20:38.751Z,61792.09
2023-10-27T16:23:06.037Z,61792.09
2023-10-27T16:25:34.380Z,61792.09
2023-10-27T16:28:01.469Z,61792.09
2023-10-27T16:30:30.617Z,61792.09
2023-10-27T16:32:59.170Z,61792.09
2023-10-27T16:35:26.022Z,61792.09
2023-10-27T16:37:53.174Z,61792.09
2023-10-27T16:40:21.496Z,61792.09
2023-10-27T16:42:48.283Z,61792.09
2023-10-27T16:45:15.780Z,61792.09
2023-10-27T16:47:44.158Z,61792.09
2023-10-27T16:50:11.170Z,61792.09
2023-10-27T16:52:39.311Z,61792.09
2023-10-27T16:55:07.963Z,61792.09
2023-10-27T16:57:34.787Z,61792.09
2023-10-27T17:00:04.554Z,61792.09
2023-10-27T17:02:31.406Z,61792.09
2023-10-27T17:04:58.421Z,61792.09
2023-10-27T17:07:25.178Z,61792.09
2023-10-27T17:09:52.068Z,61792.09
2023-10-27T17:12:19.838Z,61792.09
2023-10-27T17:14:51.597Z,61792.09
2023-10-27T17:17:18.970Z,61792.09
2023-10-27T17:19:47.136Z,61792.09
2023-10-27T17:22:16.169Z,61792.09
2023-10-27T17:24:44.307Z,61792.09
2023-10-27T17:27:14.056Z,61792.09
2023-10-27T17:29:43.831Z,61792.09
2023-10-27T17:32:12.168Z,61792.09
2023-10-27T17:34:39.250Z,61792.09
2023-10-27T17:37:06.019Z,61792.09
2023-10-27T17:39:33.261Z,61792.09
2023-10-27T17:41:59.968Z,61792.09
2023-10-27T17:44:26.654Z,61792.09
2023-10-27T17:46:54.207Z,61792.09
2023-10-27T17:49:22.710Z,61792.09
2023-10-27T17:51:49.694Z,61792.09
2023-10-27T17:54:16.536Z,61792.09
2023-10-27T17:56:43.387Z,61792.09
2023-10-27T17:59:13.118Z,61792.09
2023-10-27T18:01:39.857Z,61792.09
2023-10-27T18:04:06.808Z,61792.09
2023-10-27T18:06:33.540Z,61792.09
2023-10-27T18:09:00.552Z,61792.09
2023-10-27T18:11:27.366Z,61792.09
2023-10-27T18:13:55.223Z,61792.09
2023-10-27T18:16:22.100Z,61792.09
2023-10-27T18:18:49.002Z,61792.09
2023-10-27T18:21:15.957Z,61792.09
2023-10-27T18:23:42.725Z,61792.09
2023-10-27T18:26:20.793Z,61792.09
2023-10-27T18:28:50.395Z,61792.09
2023-10-27T18:31:17.778Z,61792.09
2023-10-27T18:33:45.407Z,61792.09
2023-10-27T18:36:15.877Z,61792.09
2023-10-27T18:38:44.143Z,61792.09
2023-10-27T18:41:11.004Z,61792.09
2023-10-27T18:43:40.501Z,61792.09
2023-10-27T18:46:10.067Z,61792.09
2023-10-27T18:48:37.613Z,61792.09
2023-10-27T18:51:04.542Z,61792.09
2023-10-27T18:53:33.802Z,61792.09
2023-10-27T18:56:07.520Z,61792.09
2023-10-27T18:58:36.338Z,61792.09
2023-10-27T19:01:09.515Z,61792.09
2023-10-27T19:03:39.836Z,61792.09
2023-10-27T19:06:07.419Z,61792.09
2023-10-27T19:08:35.067Z,61792.09
2023-10-27T19:11:11.848Z,61792.09
2023-10-27T19:13:40.852Z,61792.09
2023-10-27T19:16:09.825Z,61792.09
2023-10-27T19:18:39.047Z,61792.09
2023-10-27T19:21:11.737Z,61792.09
2023-10-27T19:23:39.333Z,61792.09
2023-10-27T19:26:13.645Z,61792.09
2023-10-27T19:28:40.967Z,61792.09
2023-10-27T19:31:08.042Z,61792.09
2023-10-27T19:33:35.100Z,61792.09
2023-10-27T19:36:02.458Z,61792.09
2023-10-27T19:38:29.790Z,61792.09
2023-10-27T19:40:56.495Z,61792.09
2023-10-27T19:43:23.231Z,61792.09
2023-10-27T19:45:50.515Z,61792.09
2023-10-27T19:48:17.477Z,61792.09
2023-10-27T19:50:52.507Z,61792.09
2023-10-27T19:53:20.126Z,61792.09
2023-10-27T19:55:46.903Z,61792.09
2023-10-27T19:58:13.599Z,61792.09
2023-10-27T20:00:40.417Z,61792.09
2023-10-27T20:03:09.898Z,61792.09
2023-10-27T20:05:39.842Z,61792.09
2023-10-27T20:08:09.567Z,61792.09
2023-10-27T20:10:37.177Z,61792.09
2023-10-27T20:13:09.518Z,61792.09
2023-10-27T20:15:37.540Z,61792.09
2023-10-27T20:18:05.816Z,61792.09
2023-10-27T20:20:33.640Z,61792.09
2023-10-27T20:23:00.642Z,61792.09
2023-10-27T20:25:31.024Z,61792.09
2023-10-27T20:28:01.250Z,61792.09
2023-10-27T20:30:28.780Z,61792.09
2023-10-27T20:32:57.723Z,61792.09
2023-10-27T20:35:28.914Z,61792.09
2023-10-27T20:37:55.990Z,61792.09
2023-10-27T20:40:25.137Z,61792.09
2023-10-27T20:42:51.925Z,61792.09
2023-10-27T20:45:19.673Z,61792.09
2023-10-27T20:47:47.703Z,61792.09
2023-10-27T20:50:15.186Z,61792.09
2023-10-27T20:52:46.211Z,61792.09
2023-10-27T20:55:19.537Z,61792.09
2023-10-27T20:57:47.054Z,61792.09
2023-10-27T21:00:16.527Z,61792.09
2023-10-27T21:02:44.383Z,61792.09
2023-10-27T21:05:11.559Z,61792.09
2023-10-27T21:07:38.794Z,61792.09
2023-10-27T21:10:06.476Z,61792.09
2023-10-27T21:12:33.639Z,61792.09
2023-10-27T21:15:01.016Z,61792.09
2023-10-27T21:17:30.516Z,61792.09
2023-10-27T21:19:57.400Z,61792.09
2023-10-27T21:22:26.029Z,61792.09
2023-10-27T21:24:53.432Z,61792.09
2023-10-27T21:27:20.503Z,61792.09
2023-10-27T21:29:50.084Z,61792.09
2023-10-27T21:32:19.807Z,61792.09
2023-10-27T21:34:46.678Z,61792.09
2023-10-27T21:37:14.722Z,61792.09
2023-10-27T21:39:45.618Z,61792.09
2023-10-27T21:42:13.709Z,61792.09
2023-10-27T21:44:40.706Z,61792.09
2023-10-27T21:47:08.988Z,61792.09
2023-10-27T21:49:36.080Z,61792.09
2023-10-27T21:52:06.191Z,61792.09
2023-10-27T21:54:37.602Z,61792.09
2023-10-27T21:57:07.428Z,61792.09
2023-10-27T21:59:34.690Z,61792.09
2023-10-27T22:02:01.939Z,61792.09
2023-10-27T22:04:29.730Z,61792.09
2023-10-27T22:06:57.795Z,61792.09
2023-10-27T22:09:26.726Z,61792.09
2023-10-27T22:11:53.893Z,61792.09
2023-10-27T22:14:21.156Z,61792.09
2023-10-27T22:16:48.193Z,61792.09
2023-10-27T22:19:16.400Z,61792.09
2023-10-27T22:21:44.898Z,61792.09
2023-10-27T22:24:15.658Z,61792.09
2023-10-27T22:26:43.374Z,61792.09
2023-10-27T22:29:10.209Z,61792.09
2023-10-27T22:31:37.314Z,61792.09
2023-10-27T22:34:04.588Z,61792.09
2023-10-27T22:36:31.625Z,61792.09
2023-10-27T22:38:59.603Z,61792.09
2023-10-27T22:41:26.348Z,61792.09
2023-10-27T22:43:53.079Z,61792.09
2023-10-27T22:46:19.976Z,61792.09
2023-10-27T22:48:47.381Z,61792.09
2023-10-27T22:51:14.103Z,61792.09
2023-10-27T22:53:42.245Z,61792.09
2023-10-27T22:56:09.548Z,61792.09
2023-10-27T22:58:36.651Z,61792.09
2023-10-27T23:01:05.707Z,61792.09
2023-10-27T23:03:32.783Z,61792.09
2023-10-27T23:06:10.931Z,61792.09
2023-10-27T23:08:39.012Z,61792.09
2023-10-27T23:11:10.428Z,61792.09
2023-10-27T23:13:42.466Z,61792.09
2023-10-27T23:16:09.664Z,61792.09
2023-10-27T23:18:44.338Z,61792.09
2023-10-27T23:21:13.136Z,61792.09
2023-10-27T23:23:42.836Z,61792.09
2023-10-27T23:26:10.370Z,61792.09
2023-10-27T23:28:40.010Z,61792.09
2023-10-27T23:31:09.735Z,61792.09
2023-10-27T23:33:39.640Z,61792.09
2023-10-27T23:36:09.108Z,61792.09
2023-10-27T23:38:39.061Z,61792.09
2023-10-27T23:41:06.377Z,61792.09
2023-10-27T23:43:34.155Z,61792.09
2023-10-27T23:46:05.369Z,61792.09
2023-10-27T23:48:33.552Z,61792.09
2023-10-27T23:51:02.599Z,61792.09
2023-10-27T23:53:31.097Z,61792.09
2023-10-27T23:55:58.503Z,61792.09
2023-10-27T23:58:25.446Z,61792.09
